Kezdőlap
METAR-TAF:

METAR-TAF

Repülőterek :

Menomonie Municipal Airport (Score Field)

Menomonie, Wisconsin, Amerikai Egyesült Államok

földrajzi szélesség: 44-53-32N, földrajzi hosszúság: 091-52-04W, magasság: 273 m

Jelenlegi meteorológiai megfigyelések

A jelentés 20 perccel ezelõtt készült, 08:15 UTC
Nyugat-északnyugati szél 5 kt
Hőmérséklet -13°C
Páratartalom 92%
Légköri nyomás 1035 hPa
Látótávolság: 4.0 km
Szórványos felhőzet 1600 lábon
Borult 2500 lábon
enyhe havazás

METAR: KLUM 200815Z AUTO 29005KT 2 1/2SM -SN SCT016 OVC025 M13/M14 A3057 RMK AO2 VIS 2V4 T11261145

Idő: 02:35 (08:35 UTC)


TAF: hiányzik

Meteorológiai megfigyelések és előrejelzések több, mint 4000 repülőtéren (METAR és TAF jelentéseket).

A térképen piros és sárga pontok jelzik az elérhető meteorológiai állomásokat.

Mozgassa az egeret a pont fölött, hogy megjelenjen az állomás neve.

Azután kattintson az időjárási megfigyelések és előrejelzések megtekintéséhez.

A térkép megváltoztatása: kattintson a fekete keresztel jelölt zöld gombra ráközelítéshez, a vonallal jelölt zöld gombra távolításhoz, vagy a zöld nyilakra a szomszédos térképek eléréséhez.


METAR-TAF: